createdAt,value
2022-11-28T00:02:44.733Z,2.70
2022-11-28T00:07:47.042Z,2.70
2022-11-28T00:12:50.529Z,2.70
2022-11-28T00:17:53.042Z,2.60
2022-11-28T00:22:55.166Z,2.60
2022-11-28T00:27:58.917Z,2.50
2022-11-28T00:33:00.969Z,2.50
2022-11-28T00:38:03.079Z,2.40
2022-11-28T00:43:06.559Z,2.40
2022-11-28T00:48:08.649Z,2.40
2022-11-28T00:53:10.944Z,2.40
2022-11-28T00:58:14.385Z,2.30
2022-11-28T01:03:16.493Z,2.30
2022-11-28T01:08:18.595Z,2.30
2022-11-28T01:13:22.227Z,2.30
2022-11-28T01:18:24.297Z,2.40
2022-11-28T01:23:26.399Z,2.40
2022-11-28T01:28:30.305Z,2.30
2022-11-28T01:33:32.443Z,2.20
2022-11-28T01:38:36.005Z,1.90
2022-11-28T01:43:57.764Z,1.70
2022-11-28T01:49:04.896Z,1.70
2022-11-28T01:54:07.370Z,1.70
2022-11-28T01:59:12.743Z,1.60
2022-11-28T02:04:15.014Z,1.70
2022-11-28T02:09:18.160Z,1.80
2022-11-28T02:14:38.317Z,1.90
2022-11-28T02:20:28.268Z,1.90
2022-11-28T02:26:03.248Z,1.80
2022-11-28T02:31:24.627Z,1.90
2022-11-28T02:36:32.751Z,1.90
2022-11-28T02:41:42.860Z,2.00
2022-11-28T02:46:53.001Z,2.10
2022-11-28T02:51:59.277Z,2.20
2022-11-28T02:57:03.037Z,2.10
2022-11-28T03:02:06.489Z,2.20
2022-11-28T03:07:20.192Z,2.30
2022-11-28T03:12:29.811Z,2.40
2022-11-28T03:17:42.274Z,2.20
2022-11-28T03:22:59.922Z,2.10
2022-11-28T03:28:08.219Z,2.00
2022-11-28T03:33:10.933Z,2.10
2022-11-28T03:38:19.759Z,2.10
2022-11-28T03:43:25.791Z,2.10
2022-11-28T03:48:32.926Z,2.10
2022-11-28T03:53:43.165Z,2.20
2022-11-28T03:58:53.749Z,2.20
2022-11-28T04:04:03.658Z,2.20
2022-11-28T04:09:14.361Z,2.30
2022-11-28T04:14:23.282Z,2.30
2022-11-28T04:19:31.847Z,2.20
2022-11-28T04:24:40.706Z,2.20
2022-11-28T04:29:47.098Z,2.20
2022-11-28T04:34:54.797Z,2.20
2022-11-28T04:39:58.665Z,2.20
2022-11-28T04:45:05.135Z,2.30
2022-11-28T04:50:08.520Z,2.30
2022-11-28T04:55:20.066Z,2.30
2022-11-28T05:00:23.026Z,2.30
2022-11-28T05:05:28.500Z,2.30
2022-11-28T05:10:31.984Z,2.30
2022-11-28T05:15:34.347Z,2.30
2022-11-28T05:20:37.761Z,2.30
2022-11-28T05:25:41.258Z,2.30
2022-11-28T05:30:43.354Z,2.40
2022-11-28T05:35:45.399Z,2.30
2022-11-28T05:40:49.081Z,2.20
2022-11-28T05:45:51.225Z,2.10
2022-11-28T05:50:53.503Z,2.20
2022-11-28T05:55:56.995Z,2.20
2022-11-28T06:00:59.322Z,2.20
2022-11-28T06:06:01.666Z,2.20
2022-11-28T06:11:05.127Z,2.20
2022-11-28T06:16:10.090Z,2.30
2022-11-28T06:21:13.755Z,2.30
2022-11-28T06:26:19.664Z,2.60
2022-11-28T06:31:23.491Z,2.50
2022-11-28T06:36:26.279Z,2.40
2022-11-28T06:41:30.098Z,2.50
2022-11-28T06:46:32.251Z,2.60
2022-11-28T06:51:34.406Z,2.70
2022-11-28T06:56:38.296Z,2.80
2022-11-28T07:01:40.547Z,2.70
2022-11-28T07:06:44.749Z,2.70
2022-11-28T07:11:48.280Z,2.70
2022-11-28T07:16:50.489Z,2.80
2022-11-28T07:21:52.758Z,2.80
2022-11-28T07:26:56.574Z,2.70
2022-11-28T07:31:58.798Z,2.80
2022-11-28T07:37:01.048Z,2.90
2022-11-28T07:42:06.513Z,3.00
2022-11-28T07:47:08.646Z,2.90
2022-11-28T07:52:10.753Z,3.00
2022-11-28T07:57:14.323Z,3.00
2022-11-28T08:02:16.493Z,3.20
2022-11-28T08:07:19.724Z,3.30
2022-11-28T08:12:23.273Z,3.40
2022-11-28T08:17:25.342Z,3.50
2022-11-28T08:22:27.732Z,3.60
2022-11-28T08:32:57.023Z,3.70
2022-11-28T08:38:02.034Z,3.70
2022-11-28T08:43:14.687Z,3.80
2022-11-28T08:48:16.754Z,4.10
2022-11-28T08:53:18.860Z,4.30
2022-11-28T08:58:22.305Z,4.40
2022-11-28T09:03:24.904Z,4.40
2022-11-28T09:08:27.011Z,4.70
2022-11-28T09:13:30.489Z,4.90
2022-11-28T09:18:44.089Z,5.00
2022-11-28T09:23:46.771Z,5.00
2022-11-28T09:28:50.273Z,5.00
2022-11-28T09:33:52.403Z,4.90
2022-11-28T09:38:54.522Z,4.90
2022-11-28T09:44:03.219Z,5.00
2022-11-28T09:49:16.956Z,4.80
2022-11-28T09:54:22.395Z,5.00
2022-11-28T09:59:29.013Z,5.10
2022-11-28T10:04:41.963Z,5.40
2022-11-28T10:09:46.095Z,5.60
2022-11-28T10:25:36.367Z,5.70
2022-11-28T10:30:43.005Z,5.60
2022-11-28T10:51:39.550Z,6.50
2022-11-28T10:56:47.751Z,6.50
2022-11-28T11:01:51.842Z,6.60
2022-11-28T11:07:16.208Z,6.60
2022-11-28T11:12:24.779Z,6.50
2022-11-28T11:17:36.325Z,6.40
2022-11-28T11:22:40.154Z,6.10
2022-11-28T11:27:50.087Z,6.20
2022-11-28T11:32:53.035Z,6.20
2022-11-28T11:38:17.568Z,6.30
2022-11-28T11:43:30.547Z,6.10
2022-11-28T11:48:37.527Z,5.90
2022-11-28T11:53:40.953Z,5.80
2022-11-28T11:58:47.018Z,5.60
2022-11-28T12:03:56.334Z,5.60
2022-11-28T12:09:09.634Z,5.50
2022-11-28T12:14:27.617Z,5.40
2022-11-28T12:19:36.699Z,5.30
2022-11-28T12:24:53.755Z,5.20
2022-11-28T12:30:11.756Z,5.10
2022-11-28T12:35:25.828Z,5.00
2022-11-28T12:40:37.156Z,4.80
2022-11-28T12:45:45.559Z,4.80
2022-11-28T12:50:53.678Z,4.80
2022-11-28T12:56:06.082Z,4.80
2022-11-28T13:01:22.173Z,4.70
2022-11-28T13:06:36.333Z,4.60
2022-11-28T13:11:56.305Z,4.50
2022-11-28T13:17:17.253Z,4.40
2022-11-28T13:22:24.714Z,4.40
2022-11-28T13:27:36.477Z,4.30
2022-11-28T13:32:46.795Z,4.30
2022-11-28T13:43:30.478Z,4.30
2022-11-28T13:49:20.604Z,4.20
2022-11-28T13:54:45.498Z,4.10
2022-11-28T13:59:59.739Z,4.00
2022-11-28T14:05:02.441Z,4.10
2022-11-28T14:10:38.668Z,4.00
2022-11-28T14:15:53.695Z,3.80
2022-11-28T14:21:00.134Z,3.90
2022-11-28T14:26:02.397Z,3.80
2022-11-28T14:31:18.244Z,3.70
2022-11-28T14:36:26.073Z,3.70
2022-11-28T14:41:28.250Z,3.60
2022-11-28T14:46:33.152Z,3.50
2022-11-28T14:57:36.783Z,3.60
2022-11-28T15:03:06.720Z,3.50
2022-11-28T15:08:46.539Z,3.40
2022-11-28T15:14:09.012Z,3.30
2022-11-28T15:19:17.970Z,3.30
2022-11-28T15:24:29.740Z,3.30
2022-11-28T15:29:31.800Z,3.30
2022-11-28T15:34:37.204Z,3.20
2022-11-28T15:39:41.686Z,3.10
2022-11-28T15:44:44.916Z,3.10
2022-11-28T15:50:00.058Z,3.00
2022-11-28T15:55:03.054Z,3.10
2022-11-28T16:00:06.132Z,3.00
2022-11-28T16:05:12.654Z,2.90
2022-11-28T16:10:25.167Z,2.90
2022-11-28T16:15:28.890Z,2.80
2022-11-28T16:20:37.912Z,2.80
2022-11-28T16:25:40.177Z,2.80
2022-11-28T16:30:47.562Z,2.80
2022-11-28T16:35:51.268Z,2.70
2022-11-28T16:41:01.124Z,2.50
2022-11-28T16:46:06.529Z,2.50
2022-11-28T16:51:35.559Z,2.60
2022-11-28T16:56:45.342Z,2.50
2022-11-28T17:01:49.482Z,2.50
2022-11-28T17:06:54.723Z,2.60
2022-11-28T17:12:03.536Z,2.60
2022-11-28T17:17:14.197Z,2.50
2022-11-28T17:22:25.033Z,2.40
2022-11-28T17:27:28.831Z,2.40
2022-11-28T17:32:33.536Z,2.50
2022-11-28T17:37:38.847Z,2.50
2022-11-28T17:42:41.688Z,2.40
2022-11-28T17:47:44.481Z,2.40
2022-11-28T17:52:49.741Z,2.40
2022-11-28T17:57:52.823Z,2.40
2022-11-28T18:02:56.672Z,2.50
2022-11-28T18:08:01.375Z,2.50
2022-11-28T18:13:07.534Z,2.50
2022-11-28T18:18:19.019Z,2.50
2022-11-28T18:23:24.862Z,2.50
2022-11-28T18:28:27.730Z,2.50
2022-11-28T18:33:30.334Z,2.50
2022-11-28T18:38:36.823Z,2.60
2022-11-28T18:43:40.682Z,2.70
2022-11-28T18:48:49.016Z,2.70
2022-11-28T18:53:54.776Z,2.70
2022-11-28T18:58:59.590Z,2.50
2022-11-28T19:04:05.740Z,2.50
2022-11-28T19:09:14.041Z,2.50
2022-11-28T19:14:18.926Z,2.30
2022-11-28T19:19:24.114Z,2.40
2022-11-28T19:24:29.823Z,2.40
2022-11-28T19:29:33.579Z,2.40
2022-11-28T19:34:37.879Z,2.30
2022-11-28T19:39:43.410Z,2.30
2022-11-28T19:44:47.778Z,2.20
2022-11-28T19:49:51.129Z,2.30
2022-11-28T19:54:56.721Z,2.30
2022-11-28T20:00:00.253Z,2.40
2022-11-28T20:05:04.409Z,2.30
2022-11-28T20:10:10.839Z,2.40
2022-11-28T20:15:18.384Z,2.30
2022-11-28T20:20:25.751Z,2.30
2022-11-28T20:25:30.967Z,2.20
2022-11-28T20:30:34.325Z,2.10
2022-11-28T20:35:37.739Z,2.10
2022-11-28T20:40:46.882Z,2.10
2022-11-28T20:45:51.054Z,2.00
2022-11-28T20:50:54.309Z,2.10
2022-11-28T20:56:03.598Z,2.20
2022-11-28T21:01:07.391Z,2.20
2022-11-28T21:06:11.170Z,2.10
2022-11-28T21:11:36.475Z,2.00
2022-11-28T21:16:39.738Z,2.00
2022-11-28T21:21:43.335Z,2.00
2022-11-28T21:26:52.951Z,2.10
2022-11-28T21:31:56.214Z,2.00
2022-11-28T21:36:58.394Z,2.10
2022-11-28T21:42:02.792Z,2.10
2022-11-28T21:47:05.756Z,2.00
2022-11-28T21:52:09.486Z,2.10
2022-11-28T21:57:12.956Z,2.00
2022-11-28T22:02:16.036Z,2.00
2022-11-28T22:07:18.298Z,2.10
2022-11-28T22:12:21.789Z,2.00
2022-11-28T22:17:23.964Z,1.90
2022-11-28T22:22:27.625Z,1.80
2022-11-28T22:27:35.515Z,1.90
2022-11-28T22:32:37.675Z,1.80
2022-11-28T22:37:40.200Z,1.80
2022-11-28T22:42:43.876Z,1.70
2022-11-28T22:47:45.996Z,1.80
2022-11-28T22:52:48.107Z,1.80
2022-11-28T22:57:51.552Z,1.80
2022-11-28T23:02:53.680Z,1.80
2022-11-28T23:07:55.931Z,1.80
2022-11-28T23:12:59.455Z,1.90
2022-11-28T23:18:01.570Z,1.70
2022-11-28T23:23:03.695Z,1.70
2022-11-28T23:28:07.376Z,1.70
2022-11-28T23:33:09.473Z,1.80
2022-11-28T23:38:11.572Z,1.80
2022-11-28T23:43:15.029Z,1.80
2022-11-28T23:48:17.269Z,1.80
2022-11-28T23:53:19.376Z,1.90
2022-11-28T23:58:22.832Z,1.80
